Time;durP1;ratioP1;P1;durP2;ratioP2;P2;SDS_P1;SDS_P2;PMS_P1;PMS_P2;Temp;Humidity;BMP_temperature;BMP_pressure;BME280_temperature;BME280_humidity;BME280_pressure;Samples;Min_cycle;Max_cycle;Signal;HPM_P1;HPM_P2
2021/06/15 00:00:52;;;;;;;4.37;3.50;;;14.60;99.90;;;;;;4969882;28;20859;-89
2021/06/15 00:03:19;;;;;;;3.90;3.60;;;14.60;99.90;;;;;;4972245;28;20446;-86
2021/06/15 00:05:46;;;;;;;6.00;4.03;;;;;;;;;;4973719;28;20985;-87
2021/06/15 00:08:14;;;;;;;5.10;4.00;;;;;;;;;;4973976;28;20486;-88
2021/06/15 00:10:42;;;;;;;5.50;4.30;;;14.60;99.90;;;;;;4973714;28;20469;-88
2021/06/15 00:13:09;;;;;;;6.43;4.57;;;14.70;99.90;;;;;;4970707;28;20454;-89
2021/06/15 00:15:37;;;;;;;6.40;4.10;;;14.50;99.90;;;;;;4969851;28;20474;-87
2021/06/15 00:18:05;;;;;;;3.83;3.53;;;14.40;99.90;;;;;;4974462;28;20865;-85
2021/06/15 00:20:32;;;;;;;4.23;3.83;;;;;;;;;;4993514;28;20472;-89
2021/06/15 00:22:59;;;;;;;4.43;4.00;;;14.30;99.90;;;;;;4993606;28;20456;-88
2021/06/15 00:25:27;;;;;;;4.37;3.97;;;;;;;;;;4992417;28;20453;-88
2021/06/15 00:27:54;;;;;;;4.80;4.13;;;;;;;;;;4993590;28;20511;-90
2021/06/15 00:30:22;;;;;;;6.10;4.13;;;14.20;99.90;;;;;;4993762;28;20459;-87
2021/06/15 00:32:50;;;;;;;4.40;3.90;;;;;;;;;;4993330;28;20458;-92
2021/06/15 00:35:20;;;;;;;7.77;4.07;;;14.20;99.90;;;;;;4993431;28;20476;-86
2021/06/15 00:37:48;;;;;;;4.40;4.00;;;14.00;99.90;;;;;;4993259;28;20479;-90
2021/06/15 00:40:15;;;;;;;6.37;4.30;;;14.10;99.90;;;;;;4992306;28;20463;-90
2021/06/15 00:42:42;;;;;;;4.40;4.00;;;14.00;99.90;;;;;;4993301;28;20481;-90
2021/06/15 00:45:12;;;;;;;5.80;4.10;;;14.10;99.90;;;;;;4993182;28;20506;-88
2021/06/15 00:47:39;;;;;;;5.37;4.57;;;13.90;99.90;;;;;;4988185;28;20500;-87
2021/06/15 00:50:07;;;;;;;4.70;4.30;;;13.80;99.90;;;;;;4993155;28;20460;-89
2021/06/15 00:52:35;;;;;;;4.83;4.43;;;14.00;99.90;;;;;;4988451;28;20472;-85
2021/06/15 00:55:02;;;;;;;5.30;4.90;;;13.90;99.90;;;;;;4985696;28;20477;-85
2021/06/15 00:57:29;;;;;;;4.80;4.30;;;13.90;99.90;;;;;;4992722;28;20456;-88
2021/06/15 00:59:57;;;;;;;5.30;4.50;;;13.90;99.90;;;;;;4989220;28;20552;-85
2021/06/15 01:02:25;;;;;;;4.80;4.30;;;13.80;99.90;;;;;;4993259;28;20457;-85
2021/06/15 01:04:52;;;;;;;5.43;4.57;;;13.90;99.90;;;;;;4992949;28;20457;-90
2021/06/15 01:07:25;;;;;;;5.80;5.07;;;13.80;99.90;;;;;;4993013;28;20563;-88
2021/06/15 01:10:02;;;;;;;6.60;4.40;;;13.80;99.90;;;;;;4991651;28;20456;-88
2021/06/15 01:12:38;;;;;;;6.40;4.77;;;13.70;99.90;;;;;;4992947;28;21127;-89
2021/06/15 01:15:10;;;;;;;5.03;4.40;;;13.80;99.90;;;;;;4995724;28;20458;-86
2021/06/15 01:17:39;;;;;;;5.40;4.50;;;13.80;99.90;;;;;;4997196;28;20464;-91
2021/06/15 01:20:16;;;;;;;5.30;4.60;;;13.70;99.90;;;;;;4997073;28;20445;-87
2021/06/15 01:23:03;;;;;;;6.70;4.40;;;13.40;99.90;;;;;;4995182;28;20456;-90
2021/06/15 01:25:44;;;;;;;4.40;4.00;;;13.50;99.90;;;;;;4995621;28;20456;-87
2021/06/15 01:28:16;;;;;;;5.20;4.70;;;13.40;99.90;;;;;;4996793;28;20456;-88
2021/06/15 01:30:50;;;;;;;7.33;4.60;;;13.90;99.90;;;;;;4996766;28;20457;-86
2021/06/15 01:33:20;;;;;;;5.03;4.53;;;13.30;99.90;;;;;;4993707;28;20448;-86
2021/06/15 01:35:48;;;;;;;6.13;4.67;;;13.70;99.90;;;;;;4996403;28;20544;-89
2021/06/15 01:38:18;;;;;;;4.70;4.30;;;13.40;99.90;;;;;;4996209;28;20476;-87
2021/06/15 01:40:52;;;;;;;6.20;4.63;;;13.30;99.90;;;;;;4996365;28;20452;-86
2021/06/15 01:43:25;;;;;;;5.20;4.73;;;13.40;99.90;;;;;;4996435;28;20453;-86
2021/06/15 01:45:54;;;;;;;4.67;4.27;;;13.40;99.90;;;;;;4996640;28;20452;-88
2021/06/15 01:48:30;;;;;;;5.33;4.90;;;13.30;99.90;;;;;;4993814;28;20448;-86
2021/06/15 01:50:58;;;;;;;6.97;4.80;;;13.30;99.90;;;;;;4996457;28;20515;-85
2021/06/15 01:53:26;;;;;;;7.60;4.83;;;;;;;;;;4995081;28;20806;-89
2021/06/15 01:55:56;;;;;;;4.80;4.37;;;13.20;99.90;;;;;;4995008;28;20809;-88
2021/06/15 01:58:29;;;;;;;5.07;4.53;;;13.70;99.90;;;;;;4993986;28;20454;-88
2021/06/15 02:00:56;;;;;;;4.43;4.03;;;13.20;99.90;;;;;;4996223;28;20784;-86
2021/06/15 02:03:24;;;;;;;6.20;4.60;;;13.20;99.90;;;;;;4996316;28;20460;-86
2021/06/15 02:05:55;;;;;;;4.93;4.27;;;13.20;99.90;;;;;;4995803;28;20460;-86
2021/06/15 02:08:27;;;;;;;5.67;4.67;;;13.10;99.90;;;;;;4994459;28;20494;-88
2021/06/15 02:10:55;;;;;;;8.43;4.60;;;13.00;99.90;;;;;;4993594;28;20453;-86
2021/06/15 02:13:25;;;;;;;8.43;4.63;;;13.10;99.90;;;;;;4995678;28;20440;-88
2021/06/15 02:15:52;;;;;;;5.47;4.63;;;13.10;99.90;;;;;;4995579;28;20947;-86
2021/06/15 02:18:21;;;;;;;5.13;4.33;;;13.10;99.90;;;;;;4995608;28;20449;-88
2021/06/15 02:20:49;;;;;;;5.90;4.83;;;13.90;99.90;;;;;;4995864;28;20460;-87
2021/06/15 02:23:20;;;;;;;5.80;5.30;;;12.80;99.90;;;;;;4995587;28;20449;-86
2021/06/15 02:25:51;;;;;;;6.13;5.33;;;12.90;99.90;;;;;;4993764;28;20453;-86
2021/06/15 02:28:18;;;;;;;5.33;4.83;;;13.00;99.90;;;;;;4991425;28;21022;-85
2021/06/15 02:30:47;;;;;;;5.30;4.80;;;13.10;99.90;;;;;;4995344;28;20457;-86
2021/06/15 02:33:16;;;;;;;4.90;4.40;;;13.00;99.90;;;;;;4993199;28;20446;-85
2021/06/15 02:35:47;;;;;;;4.80;4.40;;;13.10;99.90;;;;;;4995674;28;20457;-85
2021/06/15 02:38:20;;;;;;;5.30;4.80;;;12.70;99.90;;;;;;4995157;28;20548;-85
2021/06/15 02:40:50;;;;;;;6.40;5.13;;;12.90;99.90;;;;;;4991863;28;20451;-85
2021/06/15 02:43:18;;;;;;;5.07;4.57;;;12.80;99.90;;;;;;4992950;28;20468;-88
2021/06/15 02:45:47;;;;;;;4.73;4.33;;;12.70;99.90;;;;;;4991357;28;20477;-85
2021/06/15 02:48:16;;;;;;;5.70;5.10;;;12.80;99.90;;;;;;4995291;28;20456;-85
2021/06/15 02:50:43;;;;;;;4.80;4.40;;;;;;;;;;4995031;28;20955;-86
2021/06/15 02:53:16;;;;;;;7.40;5.30;;;12.70;99.90;;;;;;4995250;28;20456;-88
2021/06/15 02:55:48;;;;;;;5.57;4.97;;;12.80;99.90;;;;;;4994913;28;20452;-85
2021/06/15 02:58:15;;;;;;;6.03;4.97;;;12.80;99.90;;;;;;4995161;28;20488;-88
2021/06/15 03:00:42;;;;;;;7.40;5.00;;;12.70;99.90;;;;;;4995165;28;20472;-86
2021/06/15 03:03:10;;;;;;;4.83;4.27;;;12.80;99.90;;;;;;4992238;28;20464;-85
2021/06/15 03:05:37;;;;;;;6.87;4.77;;;12.70;99.90;;;;;;4994887;28;20943;-86
2021/06/15 03:08:04;;;;;;;4.77;4.37;;;12.70;99.90;;;;;;4994883;28;20481;-87
2021/06/15 03:10:32;;;;;;;5.10;4.60;;;12.20;99.90;;;;;;4992498;28;20935;-86
2021/06/15 03:13:06;;;;;;;4.40;4.03;;;13.00;99.90;;;;;;4994665;28;20476;-88
2021/06/15 03:15:40;;;;;;;5.23;4.73;;;12.20;99.90;;;;;;4994936;28;20460;-86
2021/06/15 03:18:12;;;;;;;5.23;4.27;;;12.30;99.90;;;;;;4994606;28;20496;-85
2021/06/15 03:20:41;;;;;;;9.60;5.00;;;12.50;99.90;;;;;;4992275;28;20445;-86
2021/06/15 03:23:14;;;;;;;6.07;5.47;;;12.50;99.90;;;;;;4994593;28;20454;-86
2021/06/15 03:25:41;;;;;;;5.80;5.30;;;12.50;99.90;;;;;;4993555;28;20470;-86
2021/06/15 03:28:12;;;;;;;6.20;4.83;;;12.50;99.90;;;;;;4993515;28;20457;-86
2021/06/15 03:30:42;;;;;;;4.97;4.37;;;12.20;99.90;;;;;;4994396;28;20441;-86
2021/06/15 03:33:17;;;;;;;6.40;5.33;;;12.40;99.90;;;;;;4994655;28;20449;-86
2021/06/15 03:35:48;;;;;;;5.20;4.70;;;12.60;99.90;;;;;;4992885;28;20444;-85
2021/06/15 03:38:17;;;;;;;8.17;4.40;;;14.20;99.90;;;;;;4993473;28;20497;-84
2021/06/15 03:40:49;;;;;;;5.80;4.97;;;12.40;99.90;;;;;;4993539;28;20445;-87
2021/06/15 03:43:19;;;;;;;6.07;5.47;;;12.40;99.90;;;;;;4994223;28;20446;-87
2021/06/15 03:45:50;;;;;;;6.33;4.43;;;12.50;99.90;;;;;;4994105;28;20453;-87
2021/06/15 03:48:20;;;;;;;7.23;4.87;;;12.50;99.90;;;;;;4993093;28;20453;-85
2021/06/15 03:50:49;;;;;;;7.30;4.80;;;12.50;99.90;;;;;;4994017;28;20445;-86
2021/06/15 03:53:17;;;;;;;4.83;4.43;;;12.40;99.90;;;;;;4993758;28;20462;-85
2021/06/15 03:55:46;;;;;;;5.50;4.67;;;12.60;99.90;;;;;;4988455;28;20456;-89
2021/06/15 03:58:14;;;;;;;4.97;4.47;;;13.00;99.90;;;;;;4993515;28;20485;-85
2021/06/15 04:00:47;;;;;;;8.03;4.83;;;12.60;99.90;;;;;;4994009;28;20449;-85
2021/06/15 04:03:15;;;;;;;5.40;4.73;;;12.60;99.90;;;;;;4993713;28;20929;-87
2021/06/15 04:05:46;;;;;;;5.73;4.80;;;12.70;99.90;;;;;;4993579;28;20445;-87
2021/06/15 04:08:15;;;;;;;5.20;4.70;;;12.90;99.90;;;;;;4990929;28;20547;-85
2021/06/15 04:10:45;;;;;;;4.93;4.43;;;13.00;99.90;;;;;;4993137;28;20449;-86
2021/06/15 04:13:15;;;;;;;4.87;4.47;;;13.10;99.90;;;;;;4993686;28;20449;-86
2021/06/15 04:15:43;;;;;;;4.70;4.30;;;13.10;99.90;;;;;;4993965;28;20791;-86
2021/06/15 04:18:14;;;;;;;5.63;4.93;;;13.10;99.90;;;;;;4993563;28;20493;-86
2021/06/15 04:20:43;;;;;;;6.07;4.33;;;13.00;99.90;;;;;;4991291;28;20460;-84
2021/06/15 04:23:11;;;;;;;5.10;4.57;;;13.30;99.90;;;;;;4993042;28;20448;-85
2021/06/15 04:25:41;;;;;;;7.13;4.77;;;13.30;99.90;;;;;;4991969;28;20532;-85
2021/06/15 04:28:09;;;;;;;4.60;4.17;;;14.20;99.90;;;;;;4990066;28;20438;-83
2021/06/15 04:30:40;;;;;;;5.67;4.80;;;13.40;99.90;;;;;;4992961;28;20437;-85
2021/06/15 04:33:10;;;;;;;6.40;4.70;;;13.40;99.90;;;;;;4992981;28;20445;-84
2021/06/15 04:35:40;;;;;;;6.37;4.70;;;13.80;99.90;;;;;;4992821;28;20469;-85
2021/06/15 04:38:13;;;;;;;6.60;5.17;;;13.80;99.90;;;;;;4992840;28;20484;-86
2021/06/15 04:40:43;;;;;;;5.23;4.73;;;13.90;99.90;;;;;;4985383;28;20441;-87
2021/06/15 04:43:31;;;;;;;6.20;5.57;;;13.70;99.90;;;;;;4988661;28;20460;-86
2021/06/15 04:46:13;;;;;;;4.60;4.17;;;14.30;99.90;;;;;;4987379;28;20529;-84
2021/06/15 04:48:42;;;;;;;6.60;4.50;;;14.40;99.90;;;;;;4992744;28;20823;-87
2021/06/15 04:51:10;;;;;;;3.90;3.60;;;14.50;99.90;;;;;;4992746;28;20474;-87
2021/06/15 04:53:42;;;;;;;5.53;3.40;;;14.80;99.90;;;;;;4988695;28;20442;-87
2021/06/15 04:56:10;;;;;;;4.83;4.20;;;15.20;99.90;;;;;;4988658;28;20796;-84
2021/06/15 04:58:38;;;;;;;5.50;3.57;;;15.60;99.90;;;;;;4993037;28;20523;-84
2021/06/15 05:01:05;;;;;;;8.00;4.80;;;16.50;99.90;;;;;;4988810;28;20442;-85
2021/06/15 05:03:34;;;;;;;4.20;3.80;;;16.30;99.90;;;;;;4990884;28;20453;-88
2021/06/15 05:06:05;;;;;;;5.17;4.20;;;16.70;99.90;;;;;;4993336;28;20445;-86
2021/06/15 05:08:38;;;;;;;4.80;4.30;;;16.40;99.90;;;;;;4988978;28;21047;-85
2021/06/15 05:11:07;;;;;;;8.07;4.23;;;16.70;99.90;;;;;;4990712;28;20444;-86
2021/06/15 05:13:37;;;;;;;6.30;4.57;;;16.80;99.90;;;;;;4993116;28;20453;-87
2021/06/15 05:16:06;;;;;;;3.80;3.40;;;16.90;99.90;;;;;;4992844;28;20511;-85
2021/06/15 05:18:34;;;;;;;7.40;4.50;;;17.10;99.90;;;;;;4990210;28;20489;-90
2021/06/15 05:21:02;;;;;;;7.20;4.13;;;17.40;99.90;;;;;;4990243;28;20457;-87
2021/06/15 05:23:37;;;;;;;4.20;3.80;;;17.40;99.90;;;;;;4989015;28;20481;-87
2021/06/15 05:26:03;;;;;;;5.20;4.07;;;17.60;99.90;;;;;;4992949;28;20454;-89
2021/06/15 05:28:32;;;;;;;6.33;3.20;;;18.00;99.90;;;;;;4992740;28;20460;-87
2021/06/15 05:30:58;;;;;;;8.57;3.70;;;18.00;99.90;;;;;;4988963;28;20461;-89
2021/06/15 05:33:25;;;;;;;4.50;3.37;;;18.20;99.90;;;;;;4987961;28;20480;-85
2021/06/15 05:35:52;;;;;;;7.87;4.63;;;18.50;99.90;;;;;;4987650;28;20779;-87
2021/06/15 05:38:19;;;;;;;6.97;3.30;;;19.90;99.90;;;;;;4992409;28;20548;-85
2021/06/15 05:40:47;;;;;;;3.47;3.10;;;19.90;99.90;;;;;;4992407;28;20445;-87
2021/06/15 05:43:14;;;;;;;6.47;3.50;;;;;;;;;;4990383;28;20540;-91
2021/06/15 05:45:43;;;;;;;4.27;3.67;;;21.40;99.90;;;;;;4993288;28;20460;-90
2021/06/15 05:48:10;;;;;;;4.53;3.33;;;21.80;99.90;;;;;;4988985;28;20483;-89
2021/06/15 05:50:37;;;;;;;3.43;2.83;;;22.00;99.90;;;;;;4990652;28;20972;-90
2021/06/15 05:53:04;;;;;;;4.23;3.60;;;22.30;99.90;;;;;;4993599;28;20445;-90
2021/06/15 05:55:30;;;;;;;4.83;4.00;;;22.80;99.80;;;;;;4989716;28;20945;-90
2021/06/15 05:57:57;;;;;;;5.17;3.20;;;23.40;99.00;;;;;;4989107;28;20493;-85
2021/06/15 06:00:24;;;;;;;4.10;3.70;;;23.80;98.10;;;;;;4993965;28;20453;-87
2021/06/15 06:02:52;;;;;;;6.60;3.23;;;23.60;98.10;;;;;;4995853;28;20465;-85
2021/06/15 06:08:16;;;;;;;5.13;3.40;;;23.80;97.30;;;;;;4936071;29;20483;-86
2021/06/15 06:10:43;;;;;;;4.90;3.00;;;24.20;96.60;;;;;;4981571;28;20449;-93
2021/06/15 06:13:12;;;;;;;3.63;3.30;;;24.50;96.80;;;;;;4993982;28;20452;-91
2021/06/15 06:15:40;;;;;;;4.67;3.50;;;24.80;96.80;;;;;;4996528;28;20471;-91
2021/06/15 06:18:12;;;;;;;6.57;3.20;;;24.80;96.30;;;;;;4996347;28;20495;-90
2021/06/15 06:20:40;;;;;;;3.30;3.00;;;24.90;96.50;;;;;;4992391;28;20823;-92
2021/06/15 06:23:07;;;;;;;3.50;2.60;;;25.30;94.60;;;;;;4996877;28;20449;-87
2021/06/15 06:25:36;;;;;;;4.07;3.40;;;25.50;94.90;;;;;;4994642;28;20445;-84
2021/06/15 06:28:03;;;;;;;3.40;3.10;;;25.80;93.20;;;;;;4995489;28;20548;-87
2021/06/15 06:30:31;;;;;;;3.50;3.20;;;26.10;93.90;;;;;;4995580;28;20453;-84
2021/06/15 06:32:57;;;;;;;4.03;3.10;;;25.80;92.50;;;;;;4992613;28;20441;-84
2021/06/15 06:35:26;;;;;;;2.80;2.53;;;25.60;93.40;;;;;;4991605;28;20438;-84
2021/06/15 06:37:53;;;;;;;3.57;3.17;;;25.50;94.80;;;;;;4995451;28;20543;-84
2021/06/15 06:40:20;;;;;;;5.10;3.40;;;25.40;92.50;;;;;;4994279;28;20461;-83
2021/06/15 06:42:47;;;;;;;5.10;3.27;;;25.90;93.70;;;;;;4991100;28;20461;-84
2021/06/15 06:45:15;;;;;;;5.33;3.27;;;26.40;92.60;;;;;;4995453;28;20459;-83
2021/06/15 06:47:42;;;;;;;3.03;2.83;;;26.50;93.10;;;;;;4992319;28;20463;-87
2021/06/15 06:50:09;;;;;;;7.53;3.00;;;26.40;92.10;;;;;;4988780;28;20460;-87
2021/06/15 06:52:38;;;;;;;4.23;3.07;;;26.30;91.60;;;;;;4995244;28;20492;-86
2021/06/15 06:55:06;;;;;;;3.33;2.63;;;26.20;92.40;;;;;;4990941;28;20511;-88
2021/06/15 06:57:33;;;;;;;3.73;2.60;;;27.00;90.30;;;;;;4995053;28;20939;-87
2021/06/15 07:00:00;;;;;;;4.67;3.00;;;27.40;88.30;;;;;;4995092;28;20547;-86
2021/06/15 07:02:27;;;;;;;4.70;2.73;;;27.20;89.00;;;;;;4989030;28;20626;-86
2021/06/15 07:04:54;;;;;;;3.07;2.77;;;26.80;89.60;;;;;;4994887;28;20464;-88
2021/06/15 07:07:21;;;;;;;2.80;2.60;;;27.10;90.30;;;;;;4994633;28;20496;-86
2021/06/15 07:09:49;;;;;;;2.87;2.67;;;27.10;89.10;;;;;;4993812;28;20456;-87
2021/06/15 07:12:16;;;;;;;5.17;2.70;;;27.40;89.80;;;;;;4994839;28;20459;-88
2021/06/15 07:14:43;;;;;;;5.03;2.73;;;27.70;91.00;;;;;;4994817;28;20456;-87
2021/06/15 07:17:10;;;;;;;3.10;2.90;;;27.90;88.90;;;;;;4991855;28;20453;-86
2021/06/15 07:19:37;;;;;;;4.40;2.90;;;27.70;90.10;;;;;;4994618;28;20493;-87
2021/06/15 07:22:05;;;;;;;4.23;3.10;;;27.50;89.60;;;;;;4990694;28;20456;-87
2021/06/15 07:24:32;;;;;;;5.00;3.17;;;27.30;89.60;;;;;;4993591;28;20487;-86
2021/06/15 07:27:00;;;;;;;5.87;3.13;;;27.80;87.00;;;;;;4990581;28;20471;-87
2021/06/15 07:29:27;;;;;;;5.00;3.27;;;28.30;83.90;;;;;;4988714;28;20460;-85
2021/06/15 07:31:54;;;;;;;3.40;3.10;;;28.00;86.80;;;;;;4990482;28;20453;-86
2021/06/15 07:34:21;;;;;;;6.40;3.57;;;27.40;89.00;;;;;;4988138;28;21348;-88
2021/06/15 07:36:48;;;;;;;5.40;3.43;;;27.70;88.40;;;;;;4990747;28;20463;-92
2021/06/15 07:39:15;;;;;;;4.87;3.23;;;28.20;86.90;;;;;;4989257;28;20587;-88
2021/06/15 07:41:42;;;;;;;4.90;3.30;;;27.80;88.10;;;;;;4994422;28;20449;-88
2021/06/15 07:44:10;;;;;;;7.23;3.40;;;28.10;91.10;;;;;;4994520;28;20449;-90
2021/06/15 07:46:37;;;;;;;3.60;3.30;;;27.90;88.10;;;;;;4994325;28;20449;-87
2021/06/15 07:49:04;;;;;;;6.37;3.50;;;28.00;87.00;;;;;;4994220;28;20456;-87
2021/06/15 07:51:31;;;;;;;3.60;3.00;;;;;;;;;;4994043;28;20453;-88
2021/06/15 07:53:58;;;;;;;5.30;3.80;;;27.90;86.80;;;;;;4993097;28;20449;-87
2021/06/15 07:56:25;;;;;;;4.90;3.63;;;28.40;88.00;;;;;;4994437;28;20448;-89
2021/06/15 07:58:52;;;;;;;4.40;4.00;;;28.70;85.90;;;;;;4990515;28;20999;-87
2021/06/15 08:01:20;;;;;;;4.27;3.37;;;28.70;84.50;;;;;;4989732;28;20449;-88
2021/06/15 08:03:47;;;;;;;6.10;3.87;;;29.00;86.00;;;;;;4991881;28;20476;-88
2021/06/15 08:06:14;;;;;;;9.20;3.50;;;28.80;84.70;;;;;;4991590;28;20465;-89
2021/06/15 08:08:41;;;;;;;7.80;3.80;;;29.10;87.10;;;;;;4992301;28;20517;-88
2021/06/15 08:11:08;;;;;;;4.00;3.30;;;29.00;86.30;;;;;;4992356;28;20441;-86
2021/06/15 08:13:36;;;;;;;5.67;3.80;;;;;;;;;;4990427;28;20928;-91
2021/06/15 08:16:03;;;;;;;5.40;3.73;;;29.30;82.10;;;;;;4993624;28;20783;-89
2021/06/15 08:18:31;;;;;;;4.13;3.63;;;29.50;84.90;;;;;;4990600;28;20452;-87
2021/06/15 08:20:59;;;;;;;3.30;3.00;;;;;;;;;;4991749;28;20448;-93
2021/06/15 08:23:27;;;;;;;7.23;3.37;;;29.70;78.10;;;;;;4990432;28;20441;-91
2021/06/15 08:25:54;;;;;;;5.37;3.37;;;29.70;80.90;;;;;;4993739;28;20451;-86
2021/06/15 08:28:22;;;;;;;6.90;3.50;;;29.90;78.90;;;;;;4989598;28;20871;-89
2021/06/15 08:30:49;;;;;;;4.37;3.43;;;29.70;94.20;;;;;;4993429;28;20924;-88
2021/06/15 08:33:17;;;;;;;3.50;3.20;;;;;;;;;;4990362;28;20455;-88
2021/06/15 08:35:45;;;;;;;3.80;3.30;;;30.10;78.80;;;;;;4993402;28;20544;-87
2021/06/15 08:38:12;;;;;;;5.83;3.00;;;29.30;79.60;;;;;;4993393;28;20788;-89
2021/06/15 08:40:40;;;;;;;3.60;2.73;;;29.30;77.90;;;;;;4989765;28;20794;-93
2021/06/15 08:43:13;;;;;;;5.87;3.30;;;29.70;76.00;;;;;;4990034;28;20469;-94
2021/06/15 08:45:41;;;;;;;3.80;3.40;;;29.70;76.60;;;;;;4991662;28;20465;-86
2021/06/15 08:48:09;;;;;;;4.20;3.20;;;30.00;78.30;;;;;;4993204;28;20510;-88
2021/06/15 08:50:36;;;;;;;4.90;3.47;;;29.60;74.30;;;;;;4993652;28;20790;-88
2021/06/15 08:53:04;;;;;;;3.80;3.50;;;30.00;78.90;;;;;;4993341;28;20456;-88
2021/06/15 08:55:33;;;;;;;4.80;3.53;;;30.30;75.90;;;;;;4992026;28;20459;-85
2021/06/15 08:58:11;;;;;;;5.23;3.73;;;29.50;75.30;;;;;;4993248;28;20456;-91
2021/06/15 09:00:37;;;;;;;3.93;3.57;;;29.90;75.30;;;;;;4993204;28;20452;-87
2021/06/15 09:03:04;;;;;;;4.93;3.50;;;30.50;77.10;;;;;;4990196;28;20471;-85
2021/06/15 09:05:31;;;;;;;4.13;3.70;;;30.40;74.70;;;;;;4993101;28;20959;-88
2021/06/15 09:08:08;;;;;;;4.67;3.60;;;30.30;75.70;;;;;;4990012;28;20476;-87
2021/06/15 09:10:37;;;;;;;6.50;3.63;;;30.70;76.20;;;;;;4989130;28;20466;-87
2021/06/15 09:13:05;;;;;;;3.73;3.20;;;29.30;73.30;;;;;;4992892;28;20445;-85
2021/06/15 09:15:36;;;;;;;5.20;3.27;;;29.80;74.80;;;;;;4992957;28;20444;-88
2021/06/15 09:18:03;;;;;;;4.53;3.50;;;29.70;75.30;;;;;;4993044;28;20453;-86
2021/06/15 09:20:31;;;;;;;4.00;3.67;;;29.90;75.20;;;;;;4992973;28;20449;-85
2021/06/15 09:23:05;;;;;;;4.20;3.17;;;30.00;74.80;;;;;;4993610;28;20547;-85
2021/06/15 09:25:34;;;;;;;3.77;3.47;;;30.00;74.80;;;;;;4992794;28;20933;-88
2021/06/15 09:28:17;;;;;;;6.40;3.93;;;29.30;70.90;;;;;;4994810;28;20465;-92
2021/06/15 09:30:55;;;;;;;6.77;4.23;;;29.20;72.40;;;;;;4993195;28;20456;-88
2021/06/15 09:33:35;;;;;;;6.57;3.50;;;30.00;75.60;;;;;;4992747;28;20495;-85
2021/06/15 09:36:05;;;;;;;9.70;3.60;;;30.90;74.60;;;;;;4995668;28;20448;-85
2021/06/15 09:38:33;;;;;;;5.70;3.40;;;30.80;73.30;;;;;;4991880;28;20448;-86
2021/06/15 09:41:01;;;;;;;3.90;3.30;;;31.20;71.60;;;;;;4996627;28;20448;-86
2021/06/15 09:43:28;;;;;;;3.50;2.80;;;30.70;70.00;;;;;;4998029;28;20449;-88
2021/06/15 09:45:55;;;;;;;3.43;3.13;;;29.00;69.70;;;;;;4996667;28;20800;-86
2021/06/15 09:48:28;;;;;;;3.70;3.40;;;29.90;75.20;;;;;;4993483;28;20437;-88
2021/06/15 09:50:57;;;;;;;4.40;3.20;;;30.10;70.00;;;;;;4996657;28;20523;-87
2021/06/15 09:53:29;;;;;;;3.30;3.03;;;30.50;74.40;;;;;;4995662;28;20453;-87
2021/06/15 09:55:58;;;;;;;4.27;3.63;;;30.90;72.80;;;;;;4994237;28;20459;-88
2021/06/15 09:58:43;;;;;;;3.73;3.43;;;31.10;73.80;;;;;;4996423;28;20453;-88
2021/06/15 10:01:10;;;;;;;6.43;3.43;;;30.80;68.10;;;;;;4996274;28;20468;-86
2021/06/15 10:03:37;;;;;;;4.03;3.20;;;;;;;;;;4996459;28;20444;-88
2021/06/15 10:06:05;;;;;;;3.43;2.90;;;30.60;69.00;;;;;;4996488;28;20452;-88
2021/06/15 10:08:45;;;;;;;5.40;2.70;;;31.10;73.30;;;;;;4995409;28;20504;-86
2021/06/15 10:11:12;;;;;;;3.40;3.00;;;30.90;69.40;;;;;;4996562;28;20794;-84
2021/06/15 10:13:40;;;;;;;5.30;3.50;;;30.50;67.00;;;;;;4996194;28;20449;-90
2021/06/15 10:16:08;;;;;;;4.70;3.13;;;31.10;71.10;;;;;;4996171;28;20444;-83
2021/06/15 10:18:35;;;;;;;3.27;2.97;;;31.30;71.60;;;;;;4996200;28;20440;-87
2021/06/15 10:21:02;;;;;;;6.57;2.70;;;31.10;70.50;;;;;;4996133;28;20440;-85
2021/06/15 10:23:29;;;;;;;4.23;3.10;;;31.10;66.00;;;;;;4987313;28;20552;-87
2021/06/15 10:25:58;;;;;;;4.53;2.90;;;31.20;69.40;;;;;;4995935;28;20441;-87
2021/06/15 10:28:25;;;;;;;5.10;2.80;;;;;;;;;;4993217;28;20507;-85
2021/06/15 10:30:52;;;;;;;3.07;2.87;;;31.40;70.00;;;;;;4995980;28;20487;-85
2021/06/15 10:33:23;;;;;;;2.70;2.50;;;30.40;67.80;;;;;;4992732;28;20461;-86
2021/06/15 10:35:54;;;;;;;5.17;3.17;;;31.10;69.90;;;;;;4995730;28;20923;-85
2021/06/15 10:38:40;;;;;;;3.80;3.13;;;31.20;61.80;;;;;;4996392;28;20448;-92
2021/06/15 10:41:08;;;;;;;3.73;3.07;;;29.70;86.60;;;;;;4993544;28;20562;-86
2021/06/15 10:43:45;;;;;;;3.30;3.00;;;29.80;67.10;;;;;;4997713;28;20448;-88
2021/06/15 10:46:26;;;;;;;5.23;3.10;;;31.00;89.30;;;;;;4991435;28;20445;-88
2021/06/15 10:49:00;;;;;;;4.00;2.50;;;30.90;68.40;;;;;;4995455;28;20477;-85
2021/06/15 10:51:31;;;;;;;3.13;2.83;;;30.60;63.80;;;;;;4995946;28;20477;-90
2021/06/15 10:54:03;;;;;;;4.60;3.00;;;30.60;64.60;;;;;;4994610;28;20468;-87
2021/06/15 10:56:33;;;;;;;4.13;2.97;;;30.70;75.70;;;;;;4995977;28;20968;-89
2021/06/15 10:59:10;;;;;;;3.60;3.23;;;30.40;88.40;;;;;;4993630;28;20449;-88
2021/06/15 11:01:42;;;;;;;4.10;3.03;;;30.30;90.00;;;;;;4997145;28;20472;-89
2021/06/15 11:04:11;;;;;;;4.40;3.10;;;30.70;68.00;;;;;;4987291;28;20773;-86
2021/06/15 11:06:46;;;;;;;3.80;3.43;;;31.00;69.60;;;;;;4994942;28;20449;-85
2021/06/15 11:09:24;;;;;;;4.73;4.30;;;31.00;65.40;;;;;;4955915;29;20525;-85
2021/06/15 11:12:21;;;;;;;6.50;3.80;;;31.00;63.40;;;;;;4957144;29;20451;-87
2021/06/15 11:15:11;;;;;;;6.53;5.17;;;30.80;62.50;;;;;;4957800;28;20610;-87
2021/06/15 11:17:53;;;;;;;7.43;3.00;;;30.70;85.30;;;;;;4958898;29;20450;-93
2021/06/15 11:20:30;;;;;;;5.37;2.90;;;30.60;62.10;;;;;;4990770;23;20492;-92
2021/06/15 11:23:23;;;;;;;6.20;3.03;;;30.60;62.90;;;;;;4995662;28;20823;-90
2021/06/15 11:25:52;;;;;;;6.93;3.33;;;29.80;61.50;;;;;;4993140;28;20544;-85
2021/06/15 11:28:47;;;;;;;3.23;2.90;;;30.40;70.00;;;;;;4995747;28;20457;-86
2021/06/15 11:31:29;;;;;;;7.97;3.90;;;30.70;84.60;;;;;;4994060;28;20442;-86
2021/06/15 11:34:16;;;;;;;4.97;3.80;;;30.40;90.70;;;;;;4993935;28;20445;-89
2021/06/15 11:36:47;;;;;;;5.07;3.33;;;30.50;90.20;;;;;;4992682;28;20455;-85
2021/06/15 11:39:34;;;;;;;3.47;3.10;;;29.90;82.30;;;;;;4994129;28;20460;-88
2021/06/15 11:42:25;;;;;;;4.00;2.90;;;30.80;68.50;;;;;;4991467;28;20449;-89
2021/06/15 11:45:07;;;;;;;2.67;2.47;;;30.10;82.30;;;;;;4994905;28;20457;-92
2021/06/15 11:47:39;;;;;;;6.90;2.50;;;30.00;65.40;;;;;;4994674;28;20460;-87
2021/06/15 11:50:12;;;;;;;3.90;3.10;;;30.30;87.90;;;;;;4994921;28;20500;-84
2021/06/15 11:52:42;;;;;;;6.47;5.80;;;30.10;63.60;;;;;;4994123;28;20457;-81
2021/06/15 11:55:10;;;;;;;3.30;3.00;;;30.00;62.80;;;;;;4993112;28;20449;-86
2021/06/15 11:57:37;;;;;;;3.50;3.20;;;30.30;90.00;;;;;;4990967;28;20485;-87
2021/06/15 12:00:11;;;;;;;3.03;2.70;;;30.50;81.80;;;;;;4992022;28;20456;-85
2021/06/15 12:02:37;;;;;;;3.50;3.20;;;30.30;68.80;;;;;;5013780;28;20806;-86
2021/06/15 12:05:08;;;;;;;4.87;3.00;;;30.00;67.00;;;;;;5010875;28;20480;-88
2021/06/15 12:07:35;;;;;;;2.77;2.60;;;30.10;68.10;;;;;;5009641;28;20463;-84
2021/06/15 12:10:09;;;;;;;3.00;2.70;;;30.30;70.50;;;;;;5009407;28;20492;-85
2021/06/15 12:13:13;;;;;;;3.10;2.80;;;30.30;90.50;;;;;;5013569;28;20452;-83
2021/06/15 12:15:45;;;;;;;3.50;2.73;;;30.40;85.80;;;;;;4944152;29;20525;-87
2021/06/15 12:18:16;;;;;;;3.30;3.00;;;30.40;89.50;;;;;;4953770;29;20499;-87
2021/06/15 12:20:45;;;;;;;3.47;2.70;;;30.40;66.50;;;;;;4984929;28;20487;-86
2021/06/15 12:23:30;;;;;;;4.70;3.07;;;30.40;62.60;;;;;;5013319;28;20452;-85
2021/06/15 12:26:13;;;;;;;3.67;3.00;;;30.30;64.10;;;;;;5013229;28;20451;-86
2021/06/15 12:28:41;;;;;;;4.17;2.90;;;29.90;88.00;;;;;;5009592;28;20473;-84
2021/06/15 12:31:11;;;;;;;3.00;2.80;;;30.00;64.90;;;;;;5012683;28;20498;-85
2021/06/15 12:33:39;;;;;;;3.00;2.77;;;30.00;62.70;;;;;;5015034;28;20527;-86
2021/06/15 12:36:10;;;;;;;4.03;2.97;;;29.80;62.80;;;;;;5014891;28;20468;-85
2021/06/15 12:38:38;;;;;;;3.17;2.70;;;29.80;60.20;;;;;;5011508;28;20814;-87
2021/06/15 12:41:08;;;;;;;2.57;2.37;;;29.80;61.10;;;;;;5012683;28;20452;-87
2021/06/15 12:43:36;;;;;;;3.70;3.00;;;29.90;82.20;;;;;;5012909;28;20463;-90
2021/06/15 12:46:16;;;;;;;5.17;2.80;;;29.80;60.80;;;;;;5012777;28;20460;-87
2021/06/15 12:48:49;;;;;;;3.10;2.80;;;30.40;59.10;;;;;;5012979;28;21011;-85
2021/06/15 12:51:17;;;;;;;3.00;2.80;;;30.40;62.60;;;;;;5013163;28;20500;-86
2021/06/15 12:53:45;;;;;;;3.50;2.90;;;30.50;58.90;;;;;;5012129;28;20444;-85
2021/06/15 12:56:16;;;;;;;5.23;3.30;;;30.60;60.90;;;;;;5012770;28;20459;-87
2021/06/15 12:58:44;;;;;;;3.87;3.07;;;31.00;86.50;;;;;;5015100;28;20462;-86
2021/06/15 13:01:16;;;;;;;4.17;2.53;;;31.10;65.60;;;;;;5015076;28;20483;-89
2021/06/15 13:03:48;;;;;;;2.97;2.50;;;30.80;87.60;;;;;;5012803;28;20943;-85
2021/06/15 13:06:16;;;;;;;4.70;2.70;;;31.10;63.50;;;;;;5012768;28;20904;-88
2021/06/15 13:08:43;;;;;;;3.50;1.97;;;31.00;65.00;;;;;;5013509;28;20452;-88
2021/06/15 13:11:12;;;;;;;2.60;2.37;;;30.80;61.60;;;;;;5019584;28;20492;-86